Time;durP1;ratioP1;P1;durP2;ratioP2;P2;SDS_P1;SDS_P2;PMS_P1;PMS_P2;Temp;Humidity;BMP_temperature;BMP_pressure;BME280_temperature;BME280_humidity;BME280_pressure;Samples;Min_cycle;Max_cycle;Signal;HPM_P1;HPM_P2
2024/01/23 00:00:26;;;;;;;14.50;11.70;;;20.80;52.70;;;;;;5070701;28;20202;-70
2024/01/23 00:02:51;;;;;;;15.57;11.80;;;20.80;52.70;;;;;;5070545;28;20182;-70
2024/01/23 00:05:17;;;;;;;16.37;12.30;;;20.80;52.70;;;;;;5070446;28;20182;-70
2024/01/23 00:07:42;;;;;;;14.90;11.70;;;20.80;52.70;;;;;;5070420;28;20235;-70
2024/01/23 00:10:08;;;;;;;16.90;11.50;;;20.80;52.70;;;;;;5070226;28;20232;-70
2024/01/23 00:12:34;;;;;;;13.60;10.50;;;20.80;52.70;;;;;;5070524;28;20182;-69
2024/01/23 00:14:59;;;;;;;16.10;12.03;;;20.70;52.70;;;;;;5070322;28;20561;-70
2024/01/23 00:17:25;;;;;;;15.37;11.10;;;20.70;52.70;;;;;;5070232;28;20272;-70
2024/01/23 00:19:51;;;;;;;15.23;11.40;;;20.80;52.70;;;;;;5070148;28;20252;-70
2024/01/23 00:22:17;;;;;;;16.37;13.00;;;20.70;52.70;;;;;;5070318;28;20217;-70
2024/01/23 00:24:42;;;;;;;15.20;10.90;;;20.70;52.70;;;;;;5070559;28;20184;-70
2024/01/23 00:27:08;;;;;;;15.47;10.60;;;20.80;52.80;;;;;;5070161;28;20261;-70
2024/01/23 00:29:34;;;;;;;19.80;12.70;;;20.70;52.70;;;;;;5070051;28;20264;-70
2024/01/23 00:32:01;;;;;;;15.93;10.23;;;20.80;52.80;;;;;;5070043;28;20286;-70
2024/01/23 00:34:26;;;;;;;16.23;10.70;;;20.70;52.70;;;;;;5070034;28;20405;-70
2024/01/23 00:36:52;;;;;;;13.80;10.77;;;20.70;52.70;;;;;;5069977;28;20415;-70
2024/01/23 00:39:18;;;;;;;14.67;10.27;;;20.70;52.70;;;;;;5069954;28;20696;-70
2024/01/23 00:41:43;;;;;;;13.97;10.77;;;20.70;52.70;;;;;;5069503;28;20573;-70
2024/01/23 00:44:09;;;;;;;13.53;10.10;;;20.70;52.80;;;;;;5070050;28;20607;-69
2024/01/23 00:46:35;;;;;;;13.83;9.83;;;20.70;52.70;;;;;;5069928;28;20224;-69
2024/01/23 00:49:00;;;;;;;14.53;11.10;;;20.70;52.70;;;;;;5070072;28;20627;-70
2024/01/23 00:51:28;;;;;;;16.13;11.70;;;20.70;52.80;;;;;;5069870;28;20182;-70
2024/01/23 00:53:54;;;;;;;15.53;11.00;;;20.70;52.80;;;;;;5069876;28;20228;-70
2024/01/23 00:56:19;;;;;;;14.87;10.63;;;20.70;52.80;;;;;;5069792;28;20827;-70
2024/01/23 00:58:45;;;;;;;13.77;10.00;;;20.70;52.80;;;;;;5069825;28;20170;-70
2024/01/23 01:01:11;;;;;;;13.20;10.93;;;20.70;52.80;;;;;;5051816;28;20221;-70
2024/01/23 01:03:37;;;;;;;15.13;11.17;;;20.70;52.80;;;;;;5069791;28;20554;-70
2024/01/23 01:06:03;;;;;;;12.63;8.80;;;20.70;52.80;;;;;;5069768;28;20409;-70
2024/01/23 01:08:29;;;;;;;12.10;9.70;;;20.70;52.70;;;;;;5069983;28;20185;-70
2024/01/23 01:10:54;;;;;;;13.27;10.10;;;20.70;52.80;;;;;;5069554;28;20467;-69
2024/01/23 01:13:20;;;;;;;13.30;10.03;;;20.70;52.80;;;;;;5069677;28;20676;-69
2024/01/23 01:15:46;;;;;;;15.33;9.97;;;20.70;52.80;;;;;;5069727;28;20175;-70
2024/01/23 01:18:11;;;;;;;14.57;10.50;;;20.70;52.80;;;;;;5069512;28;20244;-70
2024/01/23 01:20:37;;;;;;;12.90;10.20;;;20.70;52.70;;;;;;5069541;28;20565;-70
2024/01/23 01:23:03;;;;;;;14.43;10.00;;;20.60;52.70;;;;;;5069577;28;20239;-70
2024/01/23 01:25:29;;;;;;;14.67;9.87;;;20.60;52.70;;;;;;5069574;28;20420;-70
2024/01/23 01:27:54;;;;;;;13.03;10.00;;;20.60;52.70;;;;;;5069544;28;20179;-70
2024/01/23 01:30:26;;;;;;;17.03;9.77;;;20.60;52.70;;;;;;5069342;28;20236;-70
2024/01/23 01:32:52;;;;;;;11.80;9.20;;;20.60;52.70;;;;;;5051415;28;20676;-69
2024/01/23 01:35:17;;;;;;;13.40;9.50;;;20.60;52.70;;;;;;5069508;28;20441;-69
2024/01/23 01:37:43;;;;;;;12.17;9.53;;;20.60;52.70;;;;;;5069438;28;20182;-70
2024/01/23 01:40:09;;;;;;;13.13;9.40;;;20.60;52.70;;;;;;5069305;28;20348;-70
2024/01/23 01:42:35;;;;;;;15.07;9.33;;;20.60;52.70;;;;;;5069422;28;20227;-71
2024/01/23 01:45:00;;;;;;;14.60;9.47;;;20.60;52.70;;;;;;5069660;28;20508;-70
2024/01/23 01:47:26;;;;;;;10.40;8.00;;;20.60;52.70;;;;;;5069418;28;20174;-70
2024/01/23 01:49:52;;;;;;;12.30;8.97;;;20.60;52.70;;;;;;5051109;28;20214;-70
2024/01/23 01:52:19;;;;;;;10.90;8.97;;;20.60;52.70;;;;;;5071355;28;20178;-71
2024/01/23 01:54:46;;;;;;;10.90;9.07;;;20.60;52.70;;;;;;5073152;28;20201;-70
2024/01/23 01:57:13;;;;;;;11.30;9.30;;;20.60;52.70;;;;;;5072891;28;20409;-70
2024/01/23 01:59:39;;;;;;;12.20;9.70;;;20.60;52.70;;;;;;5073062;28;20436;-70
2024/01/23 02:02:07;;;;;;;12.23;8.80;;;20.60;52.70;;;;;;5072775;28;20432;-70
2024/01/23 02:04:32;;;;;;;10.23;8.33;;;20.60;52.70;;;;;;5073002;28;20664;-70
2024/01/23 02:06:58;;;;;;;13.20;9.10;;;20.60;52.70;;;;;;5054626;28;20516;-70
2024/01/23 02:09:24;;;;;;;9.83;8.73;;;20.60;52.70;;;;;;5072501;28;20704;-70
2024/01/23 02:12:05;;;;;;;9.90;8.20;;;20.60;52.70;;;;;;5072666;28;20166;-70
2024/01/23 02:14:30;;;;;;;11.77;8.77;;;20.60;52.70;;;;;;5072699;28;20151;-70
2024/01/23 02:16:56;;;;;;;13.17;9.20;;;20.60;53.30;;;;;;5054318;28;20520;-70
2024/01/23 02:19:22;;;;;;;12.90;9.33;;;20.60;52.70;;;;;;5072727;28;20198;-70
2024/01/23 02:21:47;;;;;;;14.70;9.50;;;20.60;52.80;;;;;;5072507;28;20591;-70
2024/01/23 02:24:13;;;;;;;12.23;8.63;;;20.60;52.80;;;;;;5054640;28;20226;-70
2024/01/23 02:26:38;;;;;;;13.33;8.60;;;20.60;52.70;;;;;;5072385;28;20261;-70
2024/01/23 02:29:04;;;;;;;14.80;10.20;;;20.60;52.70;;;;;;5072140;28;20198;-69
2024/01/23 02:31:29;;;;;;;15.00;10.00;;;20.60;52.80;;;;;;5072306;28;20271;-70
2024/01/23 02:33:55;;;;;;;11.80;8.13;;;20.60;52.70;;;;;;5072172;28;20185;-70
2024/01/23 02:36:21;;;;;;;8.80;7.90;;;20.60;52.70;;;;;;5072506;28;20557;-70
2024/01/23 02:38:46;;;;;;;11.80;8.27;;;20.60;52.80;;;;;;5072157;28;20178;-70
2024/01/23 02:41:12;;;;;;;11.63;8.30;;;20.60;52.80;;;;;;5072319;28;20209;-70
2024/01/23 02:43:37;;;;;;;10.33;7.70;;;20.60;52.70;;;;;;5072039;28;20206;-69
2024/01/23 02:46:04;;;;;;;9.47;7.83;;;20.60;52.80;;;;;;5072074;28;20178;-70
2024/01/23 02:48:30;;;;;;;10.97;8.00;;;20.50;52.70;;;;;;5071992;28;20642;-70
2024/01/23 02:50:55;;;;;;;13.73;8.13;;;20.60;52.80;;;;;;5071678;28;20563;-70
2024/01/23 02:53:21;;;;;;;10.50;8.90;;;20.60;52.80;;;;;;5071926;28;20184;-70
2024/01/23 02:55:46;;;;;;;12.20;8.30;;;20.60;52.80;;;;;;5071888;28;20201;-71
2024/01/23 02:58:12;;;;;;;11.87;8.97;;;20.60;52.80;;;;;;5071793;28;20177;-70
2024/01/23 03:00:39;;;;;;;11.43;8.43;;;20.60;52.80;;;;;;5071710;28;20195;-70
2024/01/23 03:03:06;;;;;;;8.97;7.40;;;20.60;52.80;;;;;;5071016;28;20181;-70
2024/01/23 03:05:32;;;;;;;11.40;8.67;;;20.60;52.80;;;;;;5071606;28;20416;-71
2024/01/23 03:07:58;;;;;;;9.40;7.33;;;20.50;52.70;;;;;;5071673;28;20911;-70
2024/01/23 03:10:23;;;;;;;11.13;7.50;;;20.50;52.70;;;;;;5071390;28;20202;-70
2024/01/23 03:12:49;;;;;;;13.10;8.80;;;20.50;52.70;;;;;;5071472;28;20228;-70
2024/01/23 03:15:15;;;;;;;11.13;8.37;;;20.60;52.80;;;;;;5071505;28;20268;-71
2024/01/23 03:17:40;;;;;;;13.70;9.10;;;20.50;52.70;;;;;;5053219;28;20202;-71
2024/01/23 03:20:07;;;;;;;13.03;8.43;;;20.50;52.70;;;;;;5071292;28;20779;-70
2024/01/23 03:22:33;;;;;;;9.87;7.93;;;20.60;52.80;;;;;;5071338;28;20170;-71
2024/01/23 03:24:59;;;;;;;10.70;7.90;;;20.50;52.70;;;;;;5071208;28;20408;-71
2024/01/23 03:27:25;;;;;;;11.83;7.90;;;20.50;52.70;;;;;;5071234;28;20190;-71
2024/01/23 03:29:52;;;;;;;12.67;8.20;;;20.50;52.70;;;;;;5071043;28;20521;-71
2024/01/23 03:32:18;;;;;;;9.67;7.63;;;20.50;52.70;;;;;;5071123;28;20253;-71
2024/01/23 03:34:44;;;;;;;11.47;8.60;;;20.50;52.70;;;;;;5071107;28;20499;-70
2024/01/23 03:37:09;;;;;;;9.50;8.20;;;20.50;52.70;;;;;;5070975;28;20178;-71
2024/01/23 03:39:35;;;;;;;12.40;8.80;;;20.50;52.70;;;;;;5070823;28;20229;-70
2024/01/23 03:42:02;;;;;;;11.23;8.03;;;20.50;52.70;;;;;;5070930;28;20190;-71
2024/01/23 03:44:28;;;;;;;8.43;7.53;;;20.50;52.70;;;;;;5070921;28;20418;-70
2024/01/23 03:46:54;;;;;;;10.63;7.60;;;20.60;52.80;;;;;;5070776;28;20405;-71
2024/01/23 03:49:21;;;;;;;10.90;7.27;;;20.50;52.70;;;;;;5070872;28;20544;-70
2024/01/23 03:51:47;;;;;;;10.07;8.47;;;20.50;52.70;;;;;;5070974;28;20405;-69
2024/01/23 03:54:13;;;;;;;9.83;7.53;;;20.50;52.70;;;;;;5070750;28;20808;-70
2024/01/23 03:56:39;;;;;;;11.07;8.23;;;20.50;52.70;;;;;;5070598;28;20515;-71
2024/01/23 03:59:04;;;;;;;9.73;7.77;;;20.50;52.70;;;;;;5070575;28;20209;-70
2024/01/23 04:01:30;;;;;;;9.67;7.27;;;20.50;52.70;;;;;;5070588;28;20650;-71
2024/01/23 04:03:55;;;;;;;10.47;7.10;;;20.50;52.70;;;;;;5070486;28;20175;-71
2024/01/23 04:06:21;;;;;;;8.83;7.23;;;20.50;52.70;;;;;;5070480;28;20224;-71
2024/01/23 04:08:47;;;;;;;8.40;6.80;;;20.50;52.70;;;;;;5070417;28;20664;-70
2024/01/23 04:11:12;;;;;;;10.03;6.57;;;20.50;52.70;;;;;;5070283;28;20669;-70
2024/01/23 04:13:38;;;;;;;11.00;8.13;;;20.50;52.70;;;;;;5070396;28;20170;-71
2024/01/23 04:16:07;;;;;;;12.07;7.30;;;20.50;52.70;;;;;;5069376;28;20847;-70
2024/01/23 04:18:33;;;;;;;11.73;7.60;;;20.50;52.70;;;;;;5070316;28;20242;-70
2024/01/23 04:20:59;;;;;;;12.57;8.93;;;20.50;52.70;;;;;;5070197;28;20425;-71
2024/01/23 04:23:25;;;;;;;9.90;7.70;;;20.50;52.70;;;;;;5070482;28;20891;-70
2024/01/23 04:25:50;;;;;;;11.60;7.23;;;20.50;52.70;;;;;;5070173;28;20495;-71
2024/01/23 04:28:16;;;;;;;10.07;8.07;;;20.50;52.70;;;;;;5070235;28;20175;-71
2024/01/23 04:30:42;;;;;;;9.90;6.97;;;20.50;52.70;;;;;;5069926;28;20206;-70
2024/01/23 04:33:08;;;;;;;10.40;8.10;;;20.50;52.70;;;;;;5052023;28;20178;-71
2024/01/23 04:35:34;;;;;;;10.07;8.07;;;20.50;52.80;;;;;;5070358;28;20182;-70
2024/01/23 04:38:00;;;;;;;10.53;7.30;;;20.50;52.70;;;;;;5070082;28;20908;-71
2024/01/23 04:40:25;;;;;;;8.60;6.50;;;20.50;52.70;;;;;;5069952;28;20209;-70
2024/01/23 04:42:51;;;;;;;8.40;7.50;;;20.50;52.80;;;;;;5069809;28;20412;-69
2024/01/23 04:45:17;;;;;;;8.83;6.77;;;20.50;52.80;;;;;;5069967;28;20202;-70
2024/01/23 04:47:42;;;;;;;14.03;8.63;;;20.50;52.70;;;;;;5070168;28;20545;-70
2024/01/23 04:50:08;;;;;;;10.47;7.87;;;20.50;52.70;;;;;;5069811;28;20206;-71
2024/01/23 04:52:34;;;;;;;10.80;7.10;;;20.50;52.70;;;;;;5069974;28;20287;-71
2024/01/23 04:55:00;;;;;;;10.73;7.80;;;20.50;52.70;;;;;;5069955;28;20224;-70
2024/01/23 04:57:31;;;;;;;8.97;7.43;;;20.50;52.70;;;;;;5069856;28;20409;-70
2024/01/23 04:59:58;;;;;;;8.77;6.20;;;20.50;52.70;;;;;;5069626;28;20190;-70
2024/01/23 05:02:23;;;;;;;9.03;7.13;;;20.50;52.70;;;;;;5069867;28;20409;-71
2024/01/23 05:04:49;;;;;;;9.30;7.60;;;20.50;52.80;;;;;;5051731;28;20847;-70
2024/01/23 05:07:14;;;;;;;9.87;7.47;;;20.50;52.70;;;;;;5069766;28;20162;-71
2024/01/23 05:09:40;;;;;;;9.17;7.13;;;20.50;52.70;;;;;;5069632;28;20275;-69
2024/01/23 05:12:06;;;;;;;10.90;7.60;;;20.50;52.70;;;;;;5069753;28;20220;-71
2024/01/23 05:14:32;;;;;;;10.80;7.10;;;20.50;52.70;;;;;;5069776;28;20573;-71
2024/01/23 05:16:57;;;;;;;12.37;7.73;;;20.50;52.70;;;;;;5069590;28;20432;-71
2024/01/23 05:19:23;;;;;;;11.33;7.97;;;20.50;52.70;;;;;;5069603;28;20194;-70
2024/01/23 05:21:48;;;;;;;9.70;7.30;;;20.50;52.70;;;;;;5069708;28;20185;-71
2024/01/23 05:24:14;;;;;;;9.67;7.30;;;20.50;52.70;;;;;;5051602;28;20174;-71
2024/01/23 05:26:40;;;;;;;10.00;7.03;;;20.50;52.70;;;;;;5070521;28;20183;-71
2024/01/23 05:29:05;;;;;;;9.47;7.47;;;20.50;52.70;;;;;;5073918;28;20577;-74
2024/01/23 05:31:31;;;;;;;11.17;7.60;;;20.60;52.80;;;;;;5073672;28;20194;-70
2024/01/23 05:33:56;;;;;;;8.60;7.47;;;20.60;52.70;;;;;;5073662;28;20535;-71
2024/01/23 05:36:22;;;;;;;9.70;7.87;;;20.50;52.70;;;;;;5073434;28;20231;-71
2024/01/23 05:38:48;;;;;;;10.37;6.83;;;20.50;52.70;;;;;;5073867;28;20174;-71
2024/01/23 05:41:13;;;;;;;11.57;7.23;;;20.50;52.70;;;;;;5073342;28;20711;-71
2024/01/23 05:43:39;;;;;;;8.60;6.60;;;20.50;52.70;;;;;;5073265;28;20423;-70
2024/01/23 05:46:05;;;;;;;8.83;6.60;;;20.50;52.60;;;;;;5073979;28;20162;-71
2024/01/23 05:48:31;;;;;;;8.27;5.47;;;20.50;52.70;;;;;;5073824;28;20947;-71
2024/01/23 05:50:56;;;;;;;8.73;6.73;;;20.50;52.60;;;;;;5073103;28;20229;-71
2024/01/23 05:53:22;;;;;;;9.60;6.63;;;20.50;52.60;;;;;;5073085;28;20689;-71
2024/01/23 05:55:48;;;;;;;7.70;6.63;;;20.50;52.60;;;;;;5073106;28;20173;-71
2024/01/23 05:58:13;;;;;;;7.70;6.40;;;20.50;52.60;;;;;;5073006;28;20641;-70
2024/01/23 06:00:39;;;;;;;9.20;7.00;;;20.60;52.70;;;;;;5073163;28;20217;-70
2024/01/23 06:03:05;;;;;;;9.60;6.50;;;20.50;52.60;;;;;;5072953;28;20182;-71
2024/01/23 06:05:30;;;;;;;8.90;6.97;;;20.50;52.60;;;;;;5072904;28;20679;-71
2024/01/23 06:07:56;;;;;;;11.10;7.23;;;20.50;52.70;;;;;;5073171;28;20186;-72
2024/01/23 06:10:22;;;;;;;10.03;7.30;;;20.50;52.60;;;;;;5073024;28;20255;-71
2024/01/23 06:12:47;;;;;;;10.43;7.13;;;20.60;52.70;;;;;;5073344;28;20220;-71
2024/01/23 06:15:14;;;;;;;10.90;7.70;;;20.60;52.70;;;;;;5073396;28;20759;-71
2024/01/23 06:17:40;;;;;;;7.30;5.63;;;20.50;52.60;;;;;;5072614;28;20569;-70
2024/01/23 06:20:07;;;;;;;7.93;6.37;;;20.60;52.70;;;;;;5072591;28;20470;-71
2024/01/23 06:22:34;;;;;;;7.80;6.70;;;20.60;52.70;;;;;;5072846;28;20174;-71
2024/01/23 06:25:08;;;;;;;8.20;6.43;;;20.60;52.70;;;;;;5055250;28;20421;-70
2024/01/23 06:27:35;;;;;;;7.97;6.33;;;20.60;52.70;;;;;;5073283;28;20527;-71
2024/01/23 06:30:00;;;;;;;10.50;7.33;;;20.60;52.70;;;;;;5072958;28;20871;-71
2024/01/23 06:32:26;;;;;;;7.80;6.07;;;20.60;52.70;;;;;;5072941;28;20454;-69
2024/01/23 06:34:52;;;;;;;8.13;5.90;;;20.60;52.70;;;;;;5072780;28;20217;-70
2024/01/23 06:37:19;;;;;;;9.70;6.80;;;20.60;52.70;;;;;;5073098;28;20170;-71
2024/01/23 06:39:44;;;;;;;8.77;6.10;;;20.60;52.70;;;;;;5071524;28;20186;-70
2024/01/23 06:42:11;;;;;;;9.03;5.67;;;20.60;52.70;;;;;;5072911;28;20500;-71
2024/01/23 06:44:36;;;;;;;8.50;5.80;;;20.70;52.80;;;;;;5054964;28;20223;-71
2024/01/23 06:47:02;;;;;;;12.13;7.27;;;20.70;52.80;;;;;;5072780;28;20983;-71
2024/01/23 06:49:27;;;;;;;10.70;6.07;;;20.70;52.80;;;;;;5072464;28;20222;-70
2024/01/23 06:51:53;;;;;;;8.07;5.47;;;20.70;52.80;;;;;;5054769;28;20324;-71
2024/01/23 06:54:18;;;;;;;10.47;7.10;;;20.70;52.70;;;;;;5072571;28;20167;-71
2024/01/23 06:56:46;;;;;;;10.90;7.17;;;20.70;52.70;;;;;;5072316;28;20583;-71
2024/01/23 06:59:12;;;;;;;7.90;6.17;;;20.80;52.80;;;;;;5072692;28;20195;-70
2024/01/23 07:01:38;;;;;;;7.33;6.07;;;20.80;52.80;;;;;;5072151;28;20825;-70
2024/01/23 07:04:04;;;;;;;9.13;6.40;;;20.80;52.70;;;;;;5054072;28;20417;-71
2024/01/23 07:06:30;;;;;;;8.60;6.07;;;20.80;52.70;;;;;;5071965;28;20538;-71
2024/01/23 07:08:55;;;;;;;8.43;6.23;;;20.80;52.70;;;;;;5071864;28;20405;-71
2024/01/23 07:11:21;;;;;;;8.50;6.23;;;20.80;52.70;;;;;;5071919;28;20174;-71
2024/01/23 07:13:47;;;;;;;8.10;6.20;;;20.80;52.70;;;;;;5054175;28;20527;-71
2024/01/23 07:16:12;;;;;;;8.87;6.60;;;20.80;52.70;;;;;;5071725;28;20186;-71
2024/01/23 07:18:38;;;;;;;8.40;6.23;;;20.80;52.70;;;;;;5071957;28;20193;-71
2024/01/23 07:21:05;;;;;;;11.23;6.77;;;20.80;52.70;;;;;;5071721;28;20190;-71
2024/01/23 07:23:30;;;;;;;9.03;6.10;;;20.80;52.70;;;;;;5072015;28;20687;-71
2024/01/23 07:25:58;;;;;;;8.47;5.93;;;20.80;52.70;;;;;;5071550;28;20404;-72
2024/01/23 07:28:23;;;;;;;7.97;5.83;;;20.80;52.60;;;;;;5071490;28;20174;-71
2024/01/23 07:30:49;;;;;;;9.30;6.40;;;20.90;52.70;;;;;;5071520;28;21061;-70
2024/01/23 07:33:15;;;;;;;8.73;6.30;;;20.90;52.70;;;;;;5071516;28;20198;-71
2024/01/23 07:35:41;;;;;;;8.80;6.20;;;20.90;52.70;;;;;;5071545;28;20593;-71
2024/01/23 07:38:11;;;;;;;8.17;5.20;;;20.90;52.70;;;;;;5071518;28;20413;-71
2024/01/23 07:40:37;;;;;;;5.70;4.77;;;20.90;52.70;;;;;;5071490;28;20205;-70
2024/01/23 07:43:03;;;;;;;6.90;5.30;;;20.90;52.70;;;;;;5053357;28;20759;-69
2024/01/23 07:45:29;;;;;;;11.13;6.00;;;20.90;52.70;;;;;;5071368;28;20469;-69
2024/01/23 07:47:55;;;;;;;10.67;5.57;;;20.90;52.70;;;;;;5071344;28;20194;-70
2024/01/23 07:50:21;;;;;;;7.73;6.63;;;20.90;52.70;;;;;;5071030;28;21025;-71
2024/01/23 07:52:47;;;;;;;9.20;5.83;;;20.90;52.70;;;;;;5071163;28;20258;-70
2024/01/23 07:55:12;;;;;;;6.53;5.40;;;20.90;52.70;;;;;;5071169;28;20174;-70
2024/01/23 07:57:38;;;;;;;9.50;5.20;;;20.90;52.70;;;;;;5071223;28;20182;-70
2024/01/23 08:00:05;;;;;;;6.40;5.03;;;20.90;52.70;;;;;;5070916;28;20198;-70
2024/01/23 08:02:31;;;;;;;7.53;5.07;;;20.90;52.70;;;;;;5071217;28;20178;-71
2024/01/23 08:04:58;;;;;;;7.40;5.43;;;20.90;52.70;;;;;;5070561;28;20408;-70
2024/01/23 08:07:24;;;;;;;6.40;5.43;;;20.90;52.70;;;;;;5070881;28;20496;-71
2024/01/23 08:09:49;;;;;;;7.40;5.90;;;20.90;52.70;;;;;;5070858;28;20583;-70
2024/01/23 08:12:15;;;;;;;7.13;5.67;;;20.90;52.70;;;;;;5070798;28;20171;-71
2024/01/23 08:14:41;;;;;;;9.37;5.40;;;20.90;52.70;;;;;;5070744;28;20249;-70
2024/01/23 08:17:07;;;;;;;7.47;5.50;;;20.90;52.70;;;;;;5070718;28;20523;-67
2024/01/23 08:19:32;;;;;;;8.60;5.70;;;20.90;52.60;;;;;;5070625;28;20190;-70
2024/01/23 08:21:58;;;;;;;6.70;5.50;;;20.90;52.70;;;;;;5070576;28;20253;-70
2024/01/23 08:24:23;;;;;;;5.23;4.73;;;20.90;52.60;;;;;;5070401;28;20262;-70
2024/01/23 08:26:52;;;;;;;6.30;5.03;;;20.90;52.60;;;;;;5070745;28;20182;-70
2024/01/23 08:29:19;;;;;;;5.80;4.73;;;20.90;52.60;;;;;;5070652;28;20642;-70
2024/01/23 08:31:45;;;;;;;5.90;5.10;;;21.00;52.70;;;;;;5070456;28;20843;-70
2024/01/23 08:34:10;;;;;;;7.97;4.70;;;20.90;52.60;;;;;;5070423;28;20444;-71
2024/01/23 08:36:36;;;;;;;7.20;5.27;;;20.90;52.60;;;;;;5070786;28;20171;-69
2024/01/23 08:39:01;;;;;;;6.23;5.03;;;20.90;52.60;;;;;;5070229;28;20197;-69
2024/01/23 08:41:27;;;;;;;6.73;4.57;;;20.90;52.60;;;;;;5070253;28;20224;-69
2024/01/23 08:43:53;;;;;;;4.60;4.03;;;20.90;52.60;;;;;;5070250;28;20171;-70
2024/01/23 08:46:18;;;;;;;5.40;4.40;;;20.90;52.60;;;;;;5070288;28;20170;-69
2024/01/23 08:48:44;;;;;;;5.53;4.53;;;21.00;52.70;;;;;;5070370;28;20174;-70
2024/01/23 08:51:10;;;;;;;8.00;5.23;;;20.90;52.60;;;;;;5070352;28;20214;-69
2024/01/23 08:53:36;;;;;;;7.10;4.83;;;20.90;52.60;;;;;;5051950;28;20174;-69
2024/01/23 08:56:02;;;;;;;6.67;5.87;;;20.90;52.60;;;;;;5070237;28;20413;-69
2024/01/23 08:58:28;;;;;;;8.77;4.90;;;20.90;52.60;;;;;;5070074;28;20419;-70
2024/01/23 09:00:53;;;;;;;5.97;5.03;;;20.90;52.60;;;;;;5069930;28;20274;-69
2024/01/23 09:03:19;;;;;;;7.57;5.07;;;20.90;52.60;;;;;;5073851;28;20399;-70
2024/01/23 09:05:44;;;;;;;8.07;5.53;;;20.90;52.60;;;;;;5074087;28;20771;-70
2024/01/23 09:08:10;;;;;;;6.10;4.80;;;20.90;52.60;;;;;;5074108;28;20182;-69
2024/01/23 09:10:36;;;;;;;6.27;4.03;;;20.90;52.60;;;;;;5073826;28;20198;-69
2024/01/23 09:13:01;;;;;;;7.50;5.53;;;20.90;52.70;;;;;;5074169;28;20261;-70
2024/01/23 09:15:27;;;;;;;6.70;4.00;;;20.90;52.60;;;;;;5074562;28;20193;-69
2024/01/23 09:17:52;;;;;;;7.47;4.67;;;20.90;52.60;;;;;;5056402;28;20193;-69
2024/01/23 09:20:18;;;;;;;6.40;4.50;;;20.90;52.60;;;;;;5056054;28;20229;-69
2024/01/23 09:22:44;;;;;;;5.33;4.27;;;20.90;52.60;;;;;;5074244;28;20695;-70
2024/01/23 09:25:09;;;;;;;5.13;4.37;;;20.90;52.60;;;;;;5073903;28;20187;-70
2024/01/23 09:27:35;;;;;;;7.07;4.03;;;20.90;52.60;;;;;;5073669;28;20254;-69
2024/01/23 09:30:01;;;;;;;4.60;4.00;;;20.90;52.60;;;;;;5073878;28;20263;-69
2024/01/23 09:32:26;;;;;;;5.50;3.80;;;21.00;52.70;;;;;;5073608;28;20755;-69
2024/01/23 09:34:52;;;;;;;6.90;4.43;;;20.90;52.60;;;;;;5038760;28;20186;-69
2024/01/23 09:37:18;;;;;;;5.20;3.73;;;20.90;52.60;;;;;;5055448;28;20177;-69
2024/01/23 09:39:43;;;;;;;4.70;4.07;;;20.90;52.60;;;;;;5073432;28;21044;-70
2024/01/23 09:42:10;;;;;;;5.57;4.27;;;20.90;52.60;;;;;;5073605;28;20412;-70
2024/01/23 09:44:36;;;;;;;4.67;4.17;;;20.90;52.60;;;;;;5055404;28;20213;-70
2024/01/23 09:47:04;;;;;;;6.03;4.07;;;21.00;52.70;;;;;;5073361;28;20822;-70
2024/01/23 09:49:31;;;;;;;5.53;4.20;;;20.90;52.60;;;;;;5073252;28;20480;-70
2024/01/23 09:52:03;;;;;;;4.47;3.90;;;21.00;52.70;;;;;;5073545;28;20408;-68
2024/01/23 09:54:31;;;;;;;6.63;4.73;;;21.00;52.70;;;;;;5073445;28;20388;-69
2024/01/23 09:56:57;;;;;;;4.70;3.70;;;20.90;52.60;;;;;;5073054;28;20412;-70
2024/01/23 09:59:23;;;;;;;5.10;4.07;;;20.90;52.60;;;;;;5073273;28;20475;-70
2024/01/23 10:01:48;;;;;;;6.10;3.83;;;21.00;52.70;;;;;;5054947;28;20424;-70
2024/01/23 10:04:17;;;;;;;7.73;3.80;;;21.00;52.70;;;;;;5072981;28;20672;-70
2024/01/23 10:06:43;;;;;;;5.70;4.40;;;21.00;52.70;;;;;;5072877;28;20181;-70
2024/01/23 10:09:08;;;;;;;5.10;4.10;;;20.90;52.60;;;;;;5072665;28;20919;-70
2024/01/23 10:11:35;;;;;;;7.20;4.60;;;21.00;52.70;;;;;;5073266;28;20396;-70
2024/01/23 10:14:02;;;;;;;4.80;3.63;;;21.00;52.70;;;;;;5073718;28;20633;-70
2024/01/23 10:16:27;;;;;;;6.20;4.50;;;21.00;52.70;;;;;;5073414;28;20421;-70
2024/01/23 10:18:53;;;;;;;4.17;3.77;;;21.00;52.70;;;;;;5073473;28;20404;-70
2024/01/23 10:21:21;;;;;;;6.33;4.67;;;21.00;52.70;;;;;;5073421;28;20177;-70
2024/01/23 10:23:52;;;;;;;6.50;4.40;;;21.00;52.70;;;;;;5073223;28;20276;-70
2024/01/23 10:26:19;;;;;;;123.90;63.53;;;21.00;52.70;;;;;;5072704;28;20408;-70
2024/01/23 10:28:46;;;;;;;26.27;16.93;;;20.90;52.60;;;;;;5072644;28;20491;-70
2024/01/23 10:31:12;;;;;;;45.90;21.70;;;20.90;52.50;;;;;;5072599;28;20546;-70
2024/01/23 10:33:38;;;;;;;56.17;28.30;;;20.90;52.50;;;;;;5072450;28;20431;-70
2024/01/23 10:36:08;;;;;;;53.93;25.60;;;20.90;52.50;;;;;;5072325;28;20413;-70
2024/01/23 10:38:37;;;;;;;65.17;28.80;;;20.90;52.40;;;;;;5072429;28;20409;-70
2024/01/23 10:41:04;;;;;;;52.30;23.90;;;20.90;52.30;;;;;;5072157;28;20440;-69
2024/01/23 10:43:30;;;;;;;45.83;22.63;;;20.90;52.30;;;;;;5073036;28;20416;-70
2024/01/23 10:45:59;;;;;;;38.50;21.00;;;20.90;52.20;;;;;;5072343;28;20445;-70
2024/01/23 10:48:30;;;;;;;46.57;19.67;;;20.90;52.10;;;;;;5072264;28;20438;-69
2024/01/23 10:51:01;;;;;;;55.27;25.50;;;20.90;52.00;;;;;;5072515;28;20879;-70
2024/01/23 10:53:47;;;;;;;59.43;26.80;;;20.90;51.90;;;;;;5072115;28;20398;-70
2024/01/23 10:56:15;;;;;;;58.23;27.77;;;20.90;51.70;;;;;;5072175;28;20396;-70
2024/01/23 10:58:46;;;;;;;62.30;27.60;;;20.80;51.60;;;;;;5072088;28;20411;-70
2024/01/23 11:01:14;;;;;;;55.33;27.87;;;20.80;51.60;;;;;;5071926;28;20440;-70
2024/01/23 11:03:40;;;;;;;52.67;27.23;;;20.80;51.80;;;;;;5072000;28;20949;-70
2024/01/23 11:06:17;;;;;;;56.03;26.90;;;20.80;51.70;;;;;;5072074;28;20463;-70
2024/01/23 11:08:49;;;;;;;56.60;27.37;;;20.80;51.70;;;;;;5071885;28;20496;-70
2024/01/23 11:11:36;;;;;;;57.47;27.67;;;20.80;51.80;;;;;;5071875;28;20982;-70
2024/01/23 11:14:15;;;;;;;58.07;28.60;;;20.80;52.00;;;;;;5071926;28;20419;-70
2024/01/23 11:16:40;;;;;;;59.47;27.17;;;20.80;52.10;;;;;;5071597;28;20428;-69
2024/01/23 11:19:06;;;;;;;62.77;28.40;;;20.80;52.20;;;;;;5071593;28;20409;-70
2024/01/23 11:21:32;;;;;;;52.90;26.63;;;20.80;52.30;;;;;;5071704;28;20675;-69
2024/01/23 11:24:02;;;;;;;53.10;28.17;;;20.80;52.20;;;;;;5071116;28;20177;-69
2024/01/23 11:26:28;;;;;;;54.60;27.37;;;20.80;52.20;;;;;;5071508;28;20175;-69
2024/01/23 11:29:07;;;;;;;55.67;29.33;;;20.80;52.30;;;;;;5071358;28;20488;-69
2024/01/23 11:31:39;;;;;;;56.63;28.80;;;20.80;52.30;;;;;;5053650;28;20849;-69
2024/01/23 11:34:23;;;;;;;56.60;27.57;;;20.80;52.30;;;;;;5053537;28;20401;-69
2024/01/23 11:36:49;;;;;;;49.60;27.80;;;20.80;52.40;;;;;;5071419;28;20404;-70
2024/01/23 11:39:15;;;;;;;52.07;27.87;;;20.80;52.60;;;;;;5071334;28;21056;-69
2024/01/23 11:41:47;;;;;;;51.83;27.50;;;20.80;52.40;;;;;;5071321;28;20413;-70
2024/01/23 11:44:13;;;;;;;46.50;25.83;;;20.80;52.30;;;;;;5071153;28;20879;-68
2024/01/23 11:46:38;;;;;;;55.37;27.70;;;20.90;52.40;;;;;;5071181;28;20401;-70
2024/01/23 11:49:04;;;;;;;47.83;27.50;;;20.90;52.40;;;;;;5071010;28;20226;-68
2024/01/23 11:51:30;;;;;;;46.93;26.27;;;20.90;52.40;;;;;;5070975;28;20201;-69
2024/01/23 11:54:00;;;;;;;46.13;26.37;;;20.90;52.40;;;;;;5070915;28;20412;-69
2024/01/23 11:56:29;;;;;;;55.73;27.60;;;20.90;52.40;;;;;;5070929;28;20181;-69
2024/01/23 11:58:58;;;;;;;53.80;26.80;;;20.90;52.40;;;;;;5070810;28;20446;-69
2024/01/23 12:01:24;;;;;;;57.83;28.90;;;20.90;52.40;;;;;;5070718;28;20396;-69
2024/01/23 12:03:51;;;;;;;52.07;27.40;;;20.90;52.50;;;;;;5070734;28;20404;-69
2024/01/23 12:06:17;;;;;;;49.77;25.67;;;20.90;52.40;;;;;;5070622;28;20431;-69
2024/01/23 12:08:45;;;;;;;44.43;26.80;;;20.90;52.40;;;;;;5070662;28;20401;-69
2024/01/23 12:11:16;;;;;;;44.43;24.43;;;20.90;52.40;;;;;;5070443;28;20471;-70
2024/01/23 12:13:46;;;;;;;39.73;24.50;;;20.90;52.40;;;;;;5070428;28;20972;-68
2024/01/23 12:16:13;;;;;;;54.80;27.07;;;20.90;52.40;;;;;;5070509;28;20574;-69
2024/01/23 12:18:39;;;;;;;45.93;24.87;;;20.90;52.40;;;;;;5070561;28;20771;-69
2024/01/23 12:21:04;;;;;;;49.73;27.20;;;20.90;52.40;;;;;;5070765;28;20425;-68
2024/01/23 12:23:32;;;;;;;45.87;24.60;;;20.90;52.40;;;;;;5070363;28;20505;-69
2024/01/23 12:25:59;;;;;;;46.73;24.43;;;20.90;52.40;;;;;;5070460;28;20225;-67
2024/01/23 12:28:28;;;;;;;48.23;25.53;;;20.90;52.40;;;;;;5070376;28;20453;-67
2024/01/23 12:30:53;;;;;;;45.07;25.20;;;20.90;52.40;;;;;;5069997;28;20464;-69
2024/01/23 12:33:19;;;;;;;42.80;24.20;;;20.90;52.40;;;;;;5070308;28;20518;-69